sensor_id;sensor_type;location;lat;lon;timestamp;temperature;humidity
3232;DHT22;1628;48.884;9.210;2022-11-15T00:00:59;11.30;99.90
3232;DHT22;1628;48.884;9.210;2022-11-15T00:03:27;11.30;99.90
3232;DHT22;1628;48.884;9.210;2022-11-15T00:05:54;11.30;99.90
3232;DHT22;1628;48.884;9.210;2022-11-15T00:08:20;11.30;99.90
3232;DHT22;1628;48.884;9.210;2022-11-15T00:10:54;11.30;99.90
3232;DHT22;1628;48.884;9.210;2022-11-15T00:13:21;11.40;99.90
3232;DHT22;1628;48.884;9.210;2022-11-15T00:15:49;11.30;99.90
3232;DHT22;1628;48.884;9.210;2022-11-15T00:18:16;11.30;99.90
3232;DHT22;1628;48.884;9.210;2022-11-15T00:20:43;11.40;99.90
3232;DHT22;1628;48.884;9.210;2022-11-15T00:23:10;11.40;99.90
3232;DHT22;1628;48.884;9.210;2022-11-15T00:25:37;11.40;99.90
3232;DHT22;1628;48.884;9.210;2022-11-15T00:28:04;11.40;99.90
3232;DHT22;1628;48.884;9.210;2022-11-15T00:30:31;11.40;99.90
3232;DHT22;1628;48.884;9.210;2022-11-15T00:33:03;11.40;99.90
3232;DHT22;1628;48.884;9.210;2022-11-15T00:35:31;11.50;99.90
3232;DHT22;1628;48.884;9.210;2022-11-15T00:37:58;11.40;99.90
3232;DHT22;1628;48.884;9.210;2022-11-15T00:40:25;11.40;99.90
3232;DHT22;1628;48.884;9.210;2022-11-15T00:42:51;11.40;99.90
3232;DHT22;1628;48.884;9.210;2022-11-15T00:45:18;11.40;99.90
3232;DHT22;1628;48.884;9.210;2022-11-15T00:47:45;11.40;99.90
3232;DHT22;1628;48.884;9.210;2022-11-15T00:50:13;11.40;99.90
3232;DHT22;1628;48.884;9.210;2022-11-15T00:52:40;11.40;99.90
3232;DHT22;1628;48.884;9.210;2022-11-15T00:55:08;11.40;99.90
3232;DHT22;1628;48.884;9.210;2022-11-15T00:57:35;11.50;99.90
3232;DHT22;1628;48.884;9.210;2022-11-15T01:00:02;11.40;99.90
3232;DHT22;1628;48.884;9.210;2022-11-15T01:02:29;11.40;99.90
3232;DHT22;1628;48.884;9.210;2022-11-15T01:04:56;11.40;99.90
3232;DHT22;1628;48.884;9.210;2022-11-15T01:07:23;11.40;99.90
3232;DHT22;1628;48.884;9.210;2022-11-15T01:09:50;11.40;99.90
3232;DHT22;1628;48.884;9.210;2022-11-15T01:12:17;11.40;99.90
3232;DHT22;1628;48.884;9.210;2022-11-15T01:14:43;11.30;99.90
3232;DHT22;1628;48.884;9.210;2022-11-15T01:17:10;11.30;99.90
3232;DHT22;1628;48.884;9.210;2022-11-15T01:19:37;11.30;99.90
3232;DHT22;1628;48.884;9.210;2022-11-15T01:22:03;11.30;99.90
3232;DHT22;1628;48.884;9.210;2022-11-15T01:24:31;11.20;99.90
3232;DHT22;1628;48.884;9.210;2022-11-15T01:26:58;11.20;99.90
3232;DHT22;1628;48.884;9.210;2022-11-15T01:29:25;11.10;99.90
3232;DHT22;1628;48.884;9.210;2022-11-15T01:31:52;11.10;99.90
3232;DHT22;1628;48.884;9.210;2022-11-15T01:34:19;11.00;99.90
3232;DHT22;1628;48.884;9.210;2022-11-15T01:36:46;11.00;99.90
3232;DHT22;1628;48.884;9.210;2022-11-15T01:39:12;10.90;99.90
3232;DHT22;1628;48.884;9.210;2022-11-15T01:41:42;10.90;99.90
3232;DHT22;1628;48.884;9.210;2022-11-15T01:44:40;10.80;99.90
3232;DHT22;1628;48.884;9.210;2022-11-15T01:47:11;10.80;99.90
3232;DHT22;1628;48.884;9.210;2022-11-15T01:49:40;10.80;99.90
3232;DHT22;1628;48.884;9.210;2022-11-15T01:52:12;10.70;99.90
3232;DHT22;1628;48.884;9.210;2022-11-15T01:54:40;10.70;99.90
3232;DHT22;1628;48.884;9.210;2022-11-15T01:57:09;10.70;99.90
3232;DHT22;1628;48.884;9.210;2022-11-15T01:59:38;10.60;99.90
3232;DHT22;1628;48.884;9.210;2022-11-15T02:02:06;10.60;99.90
3232;DHT22;1628;48.884;9.210;2022-11-15T02:04:35;10.60;99.90
3232;DHT22;1628;48.884;9.210;2022-11-15T02:07:03;10.60;99.90
3232;DHT22;1628;48.884;9.210;2022-11-15T02:09:31;10.60;99.90
3232;DHT22;1628;48.884;9.210;2022-11-15T02:11:57;10.60;99.90
3232;DHT22;1628;48.884;9.210;2022-11-15T02:14:28;10.70;99.90
3232;DHT22;1628;48.884;9.210;2022-11-15T02:16:58;10.70;99.90
3232;DHT22;1628;48.884;9.210;2022-11-15T02:19:47;10.70;99.90
3232;DHT22;1628;48.884;9.210;2022-11-15T02:22:26;10.80;99.90
3232;DHT22;1628;48.884;9.210;2022-11-15T02:25:21;10.80;99.90
3232;DHT22;1628;48.884;9.210;2022-11-15T02:28:05;10.80;99.90
3232;DHT22;1628;48.884;9.210;2022-11-15T02:30:41;10.90;99.90
3232;DHT22;1628;48.884;9.210;2022-11-15T02:33:17;10.90;99.90
3232;DHT22;1628;48.884;9.210;2022-11-15T02:35:52;11.00;99.90
3232;DHT22;1628;48.884;9.210;2022-11-15T02:38:28;11.00;99.90
3232;DHT22;1628;48.884;9.210;2022-11-15T02:40:59;11.10;99.90
3232;DHT22;1628;48.884;9.210;2022-11-15T02:43:31;11.10;99.90
3232;DHT22;1628;48.884;9.210;2022-11-15T02:46:21;11.20;99.90
3232;DHT22;1628;48.884;9.210;2022-11-15T02:49:11;11.20;99.90
3232;DHT22;1628;48.884;9.210;2022-11-15T02:51:40;11.20;99.90
3232;DHT22;1628;48.884;9.210;2022-11-15T02:54:07;11.30;99.90
3232;DHT22;1628;48.884;9.210;2022-11-15T02:56:37;11.30;99.90
3232;DHT22;1628;48.884;9.210;2022-11-15T02:59:15;11.30;99.90
3232;DHT22;1628;48.884;9.210;2022-11-15T03:01:55;11.30;99.90
3232;DHT22;1628;48.884;9.210;2022-11-15T03:04:27;11.40;99.90
3232;DHT22;1628;48.884;9.210;2022-11-15T03:07:04;11.30;99.90
3232;DHT22;1628;48.884;9.210;2022-11-15T03:09:34;11.30;99.90
3232;DHT22;1628;48.884;9.210;2022-11-15T03:12:07;11.30;99.90
3232;DHT22;1628;48.884;9.210;2022-11-15T03:14:40;11.20;99.90
3232;DHT22;1628;48.884;9.210;2022-11-15T03:17:14;11.20;99.90
3232;DHT22;1628;48.884;9.210;2022-11-15T03:19:44;11.20;99.90
3232;DHT22;1628;48.884;9.210;2022-11-15T03:22:15;11.20;99.90
3232;DHT22;1628;48.884;9.210;2022-11-15T03:24:44;11.10;99.90
3232;DHT22;1628;48.884;9.210;2022-11-15T03:27:14;11.00;99.90
3232;DHT22;1628;48.884;9.210;2022-11-15T03:29:46;10.90;99.90
3232;DHT22;1628;48.884;9.210;2022-11-15T03:32:19;10.70;99.90
3232;DHT22;1628;48.884;9.210;2022-11-15T03:34:49;10.60;99.90
3232;DHT22;1628;48.884;9.210;2022-11-15T03:37:18;10.50;99.90
3232;DHT22;1628;48.884;9.210;2022-11-15T03:39:46;10.30;99.90
3232;DHT22;1628;48.884;9.210;2022-11-15T03:42:21;10.20;99.90
3232;DHT22;1628;48.884;9.210;2022-11-15T03:44:54;10.20;99.90
3232;DHT22;1628;48.884;9.210;2022-11-15T03:47:27;10.10;99.90
3232;DHT22;1628;48.884;9.210;2022-11-15T03:49:59;10.00;99.90
3232;DHT22;1628;48.884;9.210;2022-11-15T03:52:31;10.00;99.90
3232;DHT22;1628;48.884;9.210;2022-11-15T03:55:00;9.90;99.90
3232;DHT22;1628;48.884;9.210;2022-11-15T03:57:27;9.90;99.90
3232;DHT22;1628;48.884;9.210;2022-11-15T03:59:53;9.90;99.90
3232;DHT22;1628;48.884;9.210;2022-11-15T04:02:20;9.90;99.90
3232;DHT22;1628;48.884;9.210;2022-11-15T04:04:48;10.00;99.90
3232;DHT22;1628;48.884;9.210;2022-11-15T04:07:15;10.00;99.90
3232;DHT22;1628;48.884;9.210;2022-11-15T04:09:41;10.00;99.90
3232;DHT22;1628;48.884;9.210;2022-11-15T04:12:22;10.00;99.90
3232;DHT22;1628;48.884;9.210;2022-11-15T04:14:56;10.10;99.90
3232;DHT22;1628;48.884;9.210;2022-11-15T04:17:33;10.10;99.90
3232;DHT22;1628;48.884;9.210;2022-11-15T04:20:02;10.10;99.90
3232;DHT22;1628;48.884;9.210;2022-11-15T04:22:46;10.10;99.90
3232;DHT22;1628;48.884;9.210;2022-11-15T04:25:30;10.10;99.90
3232;DHT22;1628;48.884;9.210;2022-11-15T04:27:57;10.00;99.90
3232;DHT22;1628;48.884;9.210;2022-11-15T04:30:23;10.00;99.90
3232;DHT22;1628;48.884;9.210;2022-11-15T04:32:50;10.00;99.90
3232;DHT22;1628;48.884;9.210;2022-11-15T04:35:18;10.00;99.90
3232;DHT22;1628;48.884;9.210;2022-11-15T04:37:45;10.00;99.90
3232;DHT22;1628;48.884;9.210;2022-11-15T04:40:11;10.00;99.90
3232;DHT22;1628;48.884;9.210;2022-11-15T04:42:40;10.00;99.90
3232;DHT22;1628;48.884;9.210;2022-11-15T04:45:07;10.00;99.90
3232;DHT22;1628;48.884;9.210;2022-11-15T04:47:34;10.00;99.90
3232;DHT22;1628;48.884;9.210;2022-11-15T04:50:01;10.00;99.90
3232;DHT22;1628;48.884;9.210;2022-11-15T04:52:29;9.90;99.90
3232;DHT22;1628;48.884;9.210;2022-11-15T04:54:56;9.90;99.90
3232;DHT22;1628;48.884;9.210;2022-11-15T04:57:22;9.90;99.90
3232;DHT22;1628;48.884;9.210;2022-11-15T04:59:49;9.90;99.90
3232;DHT22;1628;48.884;9.210;2022-11-15T05:02:15;9.80;99.90
3232;DHT22;1628;48.884;9.210;2022-11-15T05:04:42;9.80;99.90
3232;DHT22;1628;48.884;9.210;2022-11-15T05:07:08;9.80;99.90
3232;DHT22;1628;48.884;9.210;2022-11-15T05:09:36;9.70;99.90
3232;DHT22;1628;48.884;9.210;2022-11-15T05:12:02;9.70;99.90
3232;DHT22;1628;48.884;9.210;2022-11-15T05:14:29;9.70;99.90
3232;DHT22;1628;48.884;9.210;2022-11-15T05:16:56;9.60;99.90
3232;DHT22;1628;48.884;9.210;2022-11-15T05:19:23;9.60;99.90
3232;DHT22;1628;48.884;9.210;2022-11-15T05:21:49;9.60;99.90
3232;DHT22;1628;48.884;9.210;2022-11-15T05:24:16;9.60;99.90
3232;DHT22;1628;48.884;9.210;2022-11-15T05:26:44;9.60;99.90
3232;DHT22;1628;48.884;9.210;2022-11-15T05:29:11;9.60;99.90
3232;DHT22;1628;48.884;9.210;2022-11-15T05:31:39;9.60;99.90
3232;DHT22;1628;48.884;9.210;2022-11-15T05:34:07;9.60;99.90
3232;DHT22;1628;48.884;9.210;2022-11-15T05:36:36;9.60;99.90
3232;DHT22;1628;48.884;9.210;2022-11-15T05:39:05;9.60;99.90
3232;DHT22;1628;48.884;9.210;2022-11-15T05:41:34;9.60;99.90
3232;DHT22;1628;48.884;9.210;2022-11-15T05:44:06;9.60;99.90
3232;DHT22;1628;48.884;9.210;2022-11-15T05:46:34;9.50;99.90
3232;DHT22;1628;48.884;9.210;2022-11-15T05:49:05;9.40;99.90
3232;DHT22;1628;48.884;9.210;2022-11-15T05:51:33;9.40;99.90
3232;DHT22;1628;48.884;9.210;2022-11-15T05:54:01;9.30;99.90
3232;DHT22;1628;48.884;9.210;2022-11-15T05:56:28;9.30;99.90
3232;DHT22;1628;48.884;9.210;2022-11-15T05:58:56;9.20;99.90
3232;DHT22;1628;48.884;9.210;2022-11-15T06:01:25;9.20;99.90
3232;DHT22;1628;48.884;9.210;2022-11-15T06:03:52;9.20;99.90
3232;DHT22;1628;48.884;9.210;2022-11-15T06:06:19;9.10;99.90
3232;DHT22;1628;48.884;9.210;2022-11-15T06:08:46;9.10;99.90
3232;DHT22;1628;48.884;9.210;2022-11-15T06:11:13;9.10;99.90
3232;DHT22;1628;48.884;9.210;2022-11-15T06:13:39;9.10;99.90
3232;DHT22;1628;48.884;9.210;2022-11-15T06:16:06;9.10;99.90
3232;DHT22;1628;48.884;9.210;2022-11-15T06:18:35;9.10;99.90
3232;DHT22;1628;48.884;9.210;2022-11-15T06:21:02;9.20;99.90
3232;DHT22;1628;48.884;9.210;2022-11-15T06:23:32;9.20;99.90
3232;DHT22;1628;48.884;9.210;2022-11-15T06:25:59;9.20;99.90
3232;DHT22;1628;48.884;9.210;2022-11-15T06:28:28;9.30;99.90
3232;DHT22;1628;48.884;9.210;2022-11-15T06:30:54;9.30;99.90
3232;DHT22;1628;48.884;9.210;2022-11-15T06:33:21;9.30;99.90
3232;DHT22;1628;48.884;9.210;2022-11-15T06:35:49;9.30;99.90
3232;DHT22;1628;48.884;9.210;2022-11-15T06:38:16;9.30;99.90
3232;DHT22;1628;48.884;9.210;2022-11-15T06:40:42;9.40;99.90
3232;DHT22;1628;48.884;9.210;2022-11-15T06:43:09;9.40;99.90
3232;DHT22;1628;48.884;9.210;2022-11-15T06:45:35;9.40;99.90
3232;DHT22;1628;48.884;9.210;2022-11-15T06:48:02;9.30;99.90
3232;DHT22;1628;48.884;9.210;2022-11-15T06:50:29;9.40;99.90
3232;DHT22;1628;48.884;9.210;2022-11-15T06:53:01;9.40;99.90
3232;DHT22;1628;48.884;9.210;2022-11-15T06:55:28;9.50;99.90
3232;DHT22;1628;48.884;9.210;2022-11-15T06:57:55;9.50;99.90
3232;DHT22;1628;48.884;9.210;2022-11-15T07:00:22;9.60;99.90
3232;DHT22;1628;48.884;9.210;2022-11-15T07:02:49;9.60;99.90
3232;DHT22;1628;48.884;9.210;2022-11-15T07:05:16;9.70;99.90
3232;DHT22;1628;48.884;9.210;2022-11-15T07:07:42;9.70;99.90
3232;DHT22;1628;48.884;9.210;2022-11-15T07:10:10;9.80;99.90
3232;DHT22;1628;48.884;9.210;2022-11-15T07:12:37;9.80;99.90
3232;DHT22;1628;48.884;9.210;2022-11-15T07:15:05;9.90;99.90
3232;DHT22;1628;48.884;9.210;2022-11-15T07:17:32;10.00;99.90
3232;DHT22;1628;48.884;9.210;2022-11-15T07:19:58;10.10;99.90
3232;DHT22;1628;48.884;9.210;2022-11-15T07:22:25;10.20;99.90
3232;DHT22;1628;48.884;9.210;2022-11-15T07:24:51;10.30;99.90
3232;DHT22;1628;48.884;9.210;2022-11-15T07:27:19;10.50;99.90
3232;DHT22;1628;48.884;9.210;2022-11-15T07:29:46;10.90;99.90
3232;DHT22;1628;48.884;9.210;2022-11-15T07:32:13;11.40;99.90
3232;DHT22;1628;48.884;9.210;2022-11-15T07:34:39;12.00;99.90
3232;DHT22;1628;48.884;9.210;2022-11-15T07:37:06;12.70;99.90
3232;DHT22;1628;48.884;9.210;2022-11-15T07:39:33;13.00;99.90
3232;DHT22;1628;48.884;9.210;2022-11-15T07:42:00;13.30;99.90
3232;DHT22;1628;48.884;9.210;2022-11-15T07:44:45;14.00;99.90
3232;DHT22;1628;48.884;9.210;2022-11-15T07:47:12;14.70;99.90
3232;DHT22;1628;48.884;9.210;2022-11-15T07:49:38;14.90;99.90
3232;DHT22;1628;48.884;9.210;2022-11-15T07:52:05;14.90;99.90
3232;DHT22;1628;48.884;9.210;2022-11-15T07:54:32;15.00;99.90
3232;DHT22;1628;48.884;9.210;2022-11-15T07:56:58;14.90;99.90
3232;DHT22;1628;48.884;9.210;2022-11-15T07:59:25;14.60;99.90
3232;DHT22;1628;48.884;9.210;2022-11-15T08:01:53;14.40;99.90
3232;DHT22;1628;48.884;9.210;2022-11-15T08:04:20;14.30;99.90
3232;DHT22;1628;48.884;9.210;2022-11-15T08:06:46;14.10;99.90
3232;DHT22;1628;48.884;9.210;2022-11-15T08:09:13;14.10;99.90
3232;DHT22;1628;48.884;9.210;2022-11-15T08:11:40;13.90;99.90
3232;DHT22;1628;48.884;9.210;2022-11-15T08:14:06;13.90;99.90
3232;DHT22;1628;48.884;9.210;2022-11-15T08:16:33;14.00;99.90
3232;DHT22;1628;48.884;9.210;2022-11-15T08:19:01;14.00;99.90
3232;DHT22;1628;48.884;9.210;2022-11-15T08:21:28;13.90;99.90
3232;DHT22;1628;48.884;9.210;2022-11-15T08:23:55;13.90;99.90
3232;DHT22;1628;48.884;9.210;2022-11-15T08:26:21;13.80;99.90
3232;DHT22;1628;48.884;9.210;2022-11-15T08:28:48;13.70;99.90
3232;DHT22;1628;48.884;9.210;2022-11-15T08:31:16;13.60;99.90
3232;DHT22;1628;48.884;9.210;2022-11-15T08:33:44;13.50;99.90
3232;DHT22;1628;48.884;9.210;2022-11-15T08:36:15;13.40;99.90
3232;DHT22;1628;48.884;9.210;2022-11-15T08:38:42;13.40;99.90
3232;DHT22;1628;48.884;9.210;2022-11-15T08:41:12;13.70;99.90
3232;DHT22;1628;48.884;9.210;2022-11-15T08:43:39;14.50;99.90
3232;DHT22;1628;48.884;9.210;2022-11-15T08:46:08;15.70;99.90
3232;DHT22;1628;48.884;9.210;2022-11-15T08:48:37;16.70;99.90
3232;DHT22;1628;48.884;9.210;2022-11-15T08:51:04;17.60;99.90
3232;DHT22;1628;48.884;9.210;2022-11-15T08:55:59;18.90;99.90
3232;DHT22;1628;48.884;9.210;2022-11-15T08:58:26;19.50;99.90
3232;DHT22;1628;48.884;9.210;2022-11-15T09:00:53;19.70;99.90
3232;DHT22;1628;48.884;9.210;2022-11-15T09:03:19;19.70;97.50
3232;DHT22;1628;48.884;9.210;2022-11-15T09:05:46;19.70;97.70
3232;DHT22;1628;48.884;9.210;2022-11-15T09:08:13;19.40;97.40
3232;DHT22;1628;48.884;9.210;2022-11-15T09:10:41;19.10;98.10
3232;DHT22;1628;48.884;9.210;2022-11-15T09:13:07;18.90;99.00
3232;DHT22;1628;48.884;9.210;2022-11-15T09:15:34;18.50;98.40
3232;DHT22;1628;48.884;9.210;2022-11-15T09:18:01;17.90;99.20
3232;DHT22;1628;48.884;9.210;2022-11-15T09:20:27;17.60;99.90
3232;DHT22;1628;48.884;9.210;2022-11-15T09:22:54;17.30;99.90
3232;DHT22;1628;48.884;9.210;2022-11-15T09:25:21;17.00;99.90
3232;DHT22;1628;48.884;9.210;2022-11-15T09:27:49;16.80;99.90
3232;DHT22;1628;48.884;9.210;2022-11-15T09:30:16;16.80;99.90
3232;DHT22;1628;48.884;9.210;2022-11-15T09:32:42;16.60;99.90
3232;DHT22;1628;48.884;9.210;2022-11-15T09:35:09;16.40;99.90
3232;DHT22;1628;48.884;9.210;2022-11-15T09:37:36;16.30;99.90
3232;DHT22;1628;48.884;9.210;2022-11-15T09:40:03;16.20;99.90
3232;DHT22;1628;48.884;9.210;2022-11-15T09:42:49;16.10;99.90
3232;DHT22;1628;48.884;9.210;2022-11-15T09:45:21;16.00;99.90
3232;DHT22;1628;48.884;9.210;2022-11-15T09:48:17;16.30;99.90
3232;DHT22;1628;48.884;9.210;2022-11-15T09:50:50;16.50;99.90
3232;DHT22;1628;48.884;9.210;2022-11-15T09:53:24;17.00;99.90
3232;DHT22;1628;48.884;9.210;2022-11-15T09:55:55;17.70;99.90
3232;DHT22;1628;48.884;9.210;2022-11-15T09:58:30;18.50;99.90
3232;DHT22;1628;48.884;9.210;2022-11-15T10:01:00;19.40;99.90
3232;DHT22;1628;48.884;9.210;2022-11-15T10:03:30;20.00;97.70
3232;DHT22;1628;48.884;9.210;2022-11-15T10:06:01;20.10;99.60
3232;DHT22;1628;48.884;9.210;2022-11-15T10:11:26;19.50;96.70
3232;DHT22;1628;48.884;9.210;2022-11-15T10:13:56;19.10;97.20
3232;DHT22;1628;48.884;9.210;2022-11-15T10:16:37;18.70;97.40
3232;DHT22;1628;48.884;9.210;2022-11-15T10:19:13;18.20;98.20
3232;DHT22;1628;48.884;9.210;2022-11-15T10:21:51;17.90;99.70
3232;DHT22;1628;48.884;9.210;2022-11-15T10:24:25;17.60;99.90
3232;DHT22;1628;48.884;9.210;2022-11-15T10:26:55;17.30;99.90
3232;DHT22;1628;48.884;9.210;2022-11-15T10:29:24;17.00;99.90
3232;DHT22;1628;48.884;9.210;2022-11-15T10:31:51;16.60;99.90
3232;DHT22;1628;48.884;9.210;2022-11-15T10:34:20;16.40;99.90
3232;DHT22;1628;48.884;9.210;2022-11-15T10:36:54;16.20;99.90
3232;DHT22;1628;48.884;9.210;2022-11-15T10:39:21;16.10;99.90
3232;DHT22;1628;48.884;9.210;2022-11-15T10:41:47;16.00;99.90
3232;DHT22;1628;48.884;9.210;2022-11-15T10:44:21;15.90;99.90
3232;DHT22;1628;48.884;9.210;2022-11-15T10:47:06;15.80;99.90
3232;DHT22;1628;48.884;9.210;2022-11-15T10:49:34;15.70;99.90
3232;DHT22;1628;48.884;9.210;2022-11-15T10:52:04;15.70;99.90
3232;DHT22;1628;48.884;9.210;2022-11-15T10:54:36;15.60;99.90
3232;DHT22;1628;48.884;9.210;2022-11-15T10:57:08;15.60;99.90
3232;DHT22;1628;48.884;9.210;2022-11-15T10:59:37;15.50;99.90
3232;DHT22;1628;48.884;9.210;2022-11-15T11:02:26;15.50;99.90
3232;DHT22;1628;48.884;9.210;2022-11-15T11:04:53;15.50;99.90
3232;DHT22;1628;48.884;9.210;2022-11-15T11:07:22;15.40;99.90
3232;DHT22;1628;48.884;9.210;2022-11-15T11:09:57;15.30;99.90
3232;DHT22;1628;48.884;9.210;2022-11-15T11:12:28;15.30;99.90
3232;DHT22;1628;48.884;9.210;2022-11-15T11:14:55;15.30;99.90
3232;DHT22;1628;48.884;9.210;2022-11-15T11:17:32;15.40;99.90
3232;DHT22;1628;48.884;9.210;2022-11-15T11:20:02;15.40;99.90
3232;DHT22;1628;48.884;9.210;2022-11-15T11:22:36;15.40;99.90
3232;DHT22;1628;48.884;9.210;2022-11-15T11:25:16;15.40;99.90
3232;DHT22;1628;48.884;9.210;2022-11-15T11:27:56;15.30;99.90
3232;DHT22;1628;48.884;9.210;2022-11-15T11:30:29;15.20;99.90
3232;DHT22;1628;48.884;9.210;2022-11-15T11:33:10;15.20;99.90
3232;DHT22;1628;48.884;9.210;2022-11-15T11:35:57;15.30;99.90
3232;DHT22;1628;48.884;9.210;2022-11-15T11:38:42;15.30;99.90
3232;DHT22;1628;48.884;9.210;2022-11-15T11:41:17;15.30;99.90
3232;DHT22;1628;48.884;9.210;2022-11-15T11:43:54;15.40;99.90
3232;DHT22;1628;48.884;9.210;2022-11-15T11:46:42;15.40;99.90
3232;DHT22;1628;48.884;9.210;2022-11-15T11:49:20;15.50;99.90
3232;DHT22;1628;48.884;9.210;2022-11-15T11:51:53;15.60;99.90
3232;DHT22;1628;48.884;9.210;2022-11-15T11:54:25;15.60;99.90
3232;DHT22;1628;48.884;9.210;2022-11-15T11:56:57;15.60;99.90
3232;DHT22;1628;48.884;9.210;2022-11-15T11:59:32;15.60;99.90
3232;DHT22;1628;48.884;9.210;2022-11-15T12:02:11;15.70;99.90
3232;DHT22;1628;48.884;9.210;2022-11-15T12:04:43;15.70;99.90
3232;DHT22;1628;48.884;9.210;2022-11-15T12:07:15;15.80;99.90
3232;DHT22;1628;48.884;9.210;2022-11-15T12:09:46;15.80;99.90
3232;DHT22;1628;48.884;9.210;2022-11-15T12:12:21;15.80;99.90
3232;DHT22;1628;48.884;9.210;2022-11-15T12:14:51;15.80;99.90
3232;DHT22;1628;48.884;9.210;2022-11-15T12:17:23;15.90;99.90
3232;DHT22;1628;48.884;9.210;2022-11-15T12:19:51;15.90;99.90
3232;DHT22;1628;48.884;9.210;2022-11-15T12:22:22;16.00;99.90
3232;DHT22;1628;48.884;9.210;2022-11-15T12:24:54;16.10;99.90
3232;DHT22;1628;48.884;9.210;2022-11-15T12:27:38;16.10;99.90
3232;DHT22;1628;48.884;9.210;2022-11-15T12:30:11;16.10;99.90
3232;DHT22;1628;48.884;9.210;2022-11-15T12:32:39;16.10;99.90
3232;DHT22;1628;48.884;9.210;2022-11-15T12:35:25;16.10;99.90
3232;DHT22;1628;48.884;9.210;2022-11-15T12:37:53;16.10;99.90
3232;DHT22;1628;48.884;9.210;2022-11-15T12:40:30;16.00;99.90
3232;DHT22;1628;48.884;9.210;2022-11-15T12:46:02;15.90;99.90
3232;DHT22;1628;48.884;9.210;2022-11-15T12:48:58;15.70;99.90
3232;DHT22;1628;48.884;9.210;2022-11-15T12:55:29;15.70;99.90
3232;DHT22;1628;48.884;9.210;2022-11-15T12:58:26;15.60;99.90
3232;DHT22;1628;48.884;9.210;2022-11-15T13:00:53;15.50;99.90
3232;DHT22;1628;48.884;9.210;2022-11-15T13:03:28;15.50;99.90
3232;DHT22;1628;48.884;9.210;2022-11-15T13:06:04;15.50;99.90
3232;DHT22;1628;48.884;9.210;2022-11-15T13:11:52;15.50;99.90
3232;DHT22;1628;48.884;9.210;2022-11-15T13:14:42;15.50;99.90
3232;DHT22;1628;48.884;9.210;2022-11-15T13:17:40;15.40;99.90
3232;DHT22;1628;48.884;9.210;2022-11-15T13:20:30;15.40;99.90
3232;DHT22;1628;48.884;9.210;2022-11-15T13:23:07;15.40;99.90
3232;DHT22;1628;48.884;9.210;2022-11-15T13:25:57;15.40;99.90
3232;DHT22;1628;48.884;9.210;2022-11-15T13:28:32;15.30;99.90
3232;DHT22;1628;48.884;9.210;2022-11-15T13:31:01;15.40;99.90
3232;DHT22;1628;48.884;9.210;2022-11-15T13:33:31;15.30;99.90
3232;DHT22;1628;48.884;9.210;2022-11-15T13:36:00;15.30;99.90
3232;DHT22;1628;48.884;9.210;2022-11-15T13:38:30;15.30;99.90
3232;DHT22;1628;48.884;9.210;2022-11-15T13:40:58;15.30;99.90
3232;DHT22;1628;48.884;9.210;2022-11-15T13:43:31;15.30;99.90
3232;DHT22;1628;48.884;9.210;2022-11-15T13:46:11;15.20;99.90
3232;DHT22;1628;48.884;9.210;2022-11-15T13:48:38;15.20;99.90
3232;DHT22;1628;48.884;9.210;2022-11-15T13:51:10;15.10;99.90
3232;DHT22;1628;48.884;9.210;2022-11-15T13:53:41;15.10;99.90
3232;DHT22;1628;48.884;9.210;2022-11-15T13:56:12;15.10;99.90
3232;DHT22;1628;48.884;9.210;2022-11-15T13:58:40;15.00;99.90
3232;DHT22;1628;48.884;9.210;2022-11-15T14:01:14;15.10;99.90
3232;DHT22;1628;48.884;9.210;2022-11-15T14:03:47;15.00;99.90
3232;DHT22;1628;48.884;9.210;2022-11-15T14:06:17;15.00;99.90
3232;DHT22;1628;48.884;9.210;2022-11-15T14:09:14;15.00;99.90
3232;DHT22;1628;48.884;9.210;2022-11-15T14:11:50;15.00;99.90
3232;DHT22;1628;48.884;9.210;2022-11-15T14:14:21;15.00;99.90
3232;DHT22;1628;48.884;9.210;2022-11-15T14:16:49;15.00;99.90
3232;DHT22;1628;48.884;9.210;2022-11-15T14:19:38;14.90;99.90
3232;DHT22;1628;48.884;9.210;2022-11-15T14:22:14;14.90;99.90
3232;DHT22;1628;48.884;9.210;2022-11-15T14:24:42;14.90;99.90
3232;DHT22;1628;48.884;9.210;2022-11-15T14:27:17;14.90;99.90
3232;DHT22;1628;48.884;9.210;2022-11-15T14:29:46;14.80;99.90
3232;DHT22;1628;48.884;9.210;2022-11-15T14:32:15;14.80;99.90
3232;DHT22;1628;48.884;9.210;2022-11-15T14:34:43;14.60;99.90
3232;DHT22;1628;48.884;9.210;2022-11-15T14:37:21;14.60;99.90
3232;DHT22;1628;48.884;9.210;2022-11-15T14:39:48;14.60;99.90
3232;DHT22;1628;48.884;9.210;2022-11-15T14:42:15;14.60;99.90
3232;DHT22;1628;48.884;9.210;2022-11-15T14:44:42;14.50;99.90
3232;DHT22;1628;48.884;9.210;2022-11-15T14:47:10;14.50;99.90
3232;DHT22;1628;48.884;9.210;2022-11-15T14:49:37;14.40;99.90
3232;DHT22;1628;48.884;9.210;2022-11-15T14:52:07;14.30;99.90
3232;DHT22;1628;48.884;9.210;2022-11-15T14:54:43;14.30;99.90
3232;DHT22;1628;48.884;9.210;2022-11-15T14:57:10;14.20;99.90
3232;DHT22;1628;48.884;9.210;2022-11-15T14:59:37;14.20;99.90
3232;DHT22;1628;48.884;9.210;2022-11-15T15:02:10;14.10;99.90
3232;DHT22;1628;48.884;9.210;2022-11-15T15:04:40;14.10;99.90
3232;DHT22;1628;48.884;9.210;2022-11-15T15:07:07;14.00;99.90
3232;DHT22;1628;48.884;9.210;2022-11-15T15:09:34;14.10;99.90
3232;DHT22;1628;48.884;9.210;2022-11-15T15:12:00;14.10;99.90
3232;DHT22;1628;48.884;9.210;2022-11-15T15:14:27;14.10;99.90
3232;DHT22;1628;48.884;9.210;2022-11-15T15:16:53;14.10;99.90
3232;DHT22;1628;48.884;9.210;2022-11-15T15:19:21;14.10;99.90
3232;DHT22;1628;48.884;9.210;2022-11-15T15:21:48;14.10;99.90
3232;DHT22;1628;48.884;9.210;2022-11-15T15:24:15;14.10;99.90
3232;DHT22;1628;48.884;9.210;2022-11-15T15:26:41;14.10;99.90
3232;DHT22;1628;48.884;9.210;2022-11-15T15:29:08;14.10;99.90
3232;DHT22;1628;48.884;9.210;2022-11-15T15:31:35;14.00;99.90
3232;DHT22;1628;48.884;9.210;2022-11-15T15:34:02;14.10;99.90
3232;DHT22;1628;48.884;9.210;2022-11-15T15:36:30;14.00;99.90
3232;DHT22;1628;48.884;9.210;2022-11-15T15:38:57;13.90;99.90
3232;DHT22;1628;48.884;9.210;2022-11-15T15:41:24;13.90;99.90
3232;DHT22;1628;48.884;9.210;2022-11-15T15:43:50;13.90;99.90
3232;DHT22;1628;48.884;9.210;2022-11-15T15:46:18;13.80;99.90
3232;DHT22;1628;48.884;9.210;2022-11-15T15:48:46;13.80;99.90
3232;DHT22;1628;48.884;9.210;2022-11-15T15:51:13;13.80;99.90
3232;DHT22;1628;48.884;9.210;2022-11-15T15:53:41;13.70;99.90
3232;DHT22;1628;48.884;9.210;2022-11-15T15:56:08;13.70;99.90
3232;DHT22;1628;48.884;9.210;2022-11-15T15:58:35;13.60;99.90
3232;DHT22;1628;48.884;9.210;2022-11-15T16:01:02;13.60;99.90
3232;DHT22;1628;48.884;9.210;2022-11-15T16:03:28;13.50;99.90
3232;DHT22;1628;48.884;9.210;2022-11-15T16:05:55;13.50;99.90
3232;DHT22;1628;48.884;9.210;2022-11-15T16:08:24;13.50;99.90
3232;DHT22;1628;48.884;9.210;2022-11-15T16:10:53;13.50;99.90
3232;DHT22;1628;48.884;9.210;2022-11-15T16:13:19;13.50;99.90
3232;DHT22;1628;48.884;9.210;2022-11-15T16:15:49;13.40;99.90
3232;DHT22;1628;48.884;9.210;2022-11-15T16:18:17;13.40;99.90
3232;DHT22;1628;48.884;9.210;2022-11-15T16:20:45;13.40;99.90
3232;DHT22;1628;48.884;9.210;2022-11-15T16:23:15;13.40;99.90
3232;DHT22;1628;48.884;9.210;2022-11-15T16:25:45;13.40;99.90
3232;DHT22;1628;48.884;9.210;2022-11-15T16:28:18;13.40;99.90
3232;DHT22;1628;48.884;9.210;2022-11-15T16:30:45;13.30;99.90
3232;DHT22;1628;48.884;9.210;2022-11-15T16:33:12;13.30;99.90
3232;DHT22;1628;48.884;9.210;2022-11-15T16:35:39;13.30;99.90
3232;DHT22;1628;48.884;9.210;2022-11-15T16:38:07;13.30;99.90
3232;DHT22;1628;48.884;9.210;2022-11-15T16:40:34;13.30;99.90